sensor_id;sensor_type;location;lat;lon;timestamp;temperature;humidity
39067;DHT22;24821;51.988;6.020;2022-07-10T00:00:37;17.30;90.60
39067;DHT22;24821;51.988;6.020;2022-07-10T00:03:03;17.30;90.60
39067;DHT22;24821;51.988;6.020;2022-07-10T00:05:29;17.30;90.70
39067;DHT22;24821;51.988;6.020;2022-07-10T00:07:55;17.30;90.70
39067;DHT22;24821;51.988;6.020;2022-07-10T00:10:21;17.30;90.80
39067;DHT22;24821;51.988;6.020;2022-07-10T00:12:48;17.30;90.80
39067;DHT22;24821;51.988;6.020;2022-07-10T00:15:15;17.30;90.90
39067;DHT22;24821;51.988;6.020;2022-07-10T00:17:41;17.30;91.10
39067;DHT22;24821;51.988;6.020;2022-07-10T00:20:09;17.30;91.10
39067;DHT22;24821;51.988;6.020;2022-07-10T00:22:36;17.20;91.20
39067;DHT22;24821;51.988;6.020;2022-07-10T00:25:04;17.20;91.20
39067;DHT22;24821;51.988;6.020;2022-07-10T00:27:30;17.20;91.10
39067;DHT22;24821;51.988;6.020;2022-07-10T00:29:56;17.20;91.20
39067;DHT22;24821;51.988;6.020;2022-07-10T00:32:22;17.20;91.30
39067;DHT22;24821;51.988;6.020;2022-07-10T00:34:47;17.20;91.40
39067;DHT22;24821;51.988;6.020;2022-07-10T00:37:13;17.20;91.40
39067;DHT22;24821;51.988;6.020;2022-07-10T00:39:38;17.20;91.40
39067;DHT22;24821;51.988;6.020;2022-07-10T00:42:08;17.10;91.40
39067;DHT22;24821;51.988;6.020;2022-07-10T00:44:33;17.20;91.50
39067;DHT22;24821;51.988;6.020;2022-07-10T00:46:59;17.10;91.90
39067;DHT22;24821;51.988;6.020;2022-07-10T00:49:25;17.10;91.70
39067;DHT22;24821;51.988;6.020;2022-07-10T00:51:50;17.10;91.80
39067;DHT22;24821;51.988;6.020;2022-07-10T00:54:17;17.10;91.90
39067;DHT22;24821;51.988;6.020;2022-07-10T00:56:43;17.10;92.00
39067;DHT22;24821;51.988;6.020;2022-07-10T00:59:09;17.10;92.10
39067;DHT22;24821;51.988;6.020;2022-07-10T01:01:35;17.10;92.10
39067;DHT22;24821;51.988;6.020;2022-07-10T01:04:00;17.10;92.10
39067;DHT22;24821;51.988;6.020;2022-07-10T01:06:26;17.10;92.10
39067;DHT22;24821;51.988;6.020;2022-07-10T01:08:51;17.10;92.20
39067;DHT22;24821;51.988;6.020;2022-07-10T01:11:17;17.10;92.20
39067;DHT22;24821;51.988;6.020;2022-07-10T01:13:43;17.10;92.30
39067;DHT22;24821;51.988;6.020;2022-07-10T01:16:10;17.10;92.20
39067;DHT22;24821;51.988;6.020;2022-07-10T01:18:36;17.10;92.30
39067;DHT22;24821;51.988;6.020;2022-07-10T01:21:01;17.10;92.30
39067;DHT22;24821;51.988;6.020;2022-07-10T01:23:27;17.10;92.40
39067;DHT22;24821;51.988;6.020;2022-07-10T01:25:52;17.10;92.40
39067;DHT22;24821;51.988;6.020;2022-07-10T01:28:20;17.10;92.50
39067;DHT22;24821;51.988;6.020;2022-07-10T01:30:46;17.10;92.60
39067;DHT22;24821;51.988;6.020;2022-07-10T01:33:12;17.00;92.60
39067;DHT22;24821;51.988;6.020;2022-07-10T01:35:38;16.90;92.70
39067;DHT22;24821;51.988;6.020;2022-07-10T01:38:04;16.90;92.80
39067;DHT22;24821;51.988;6.020;2022-07-10T01:40:30;16.80;92.90
39067;DHT22;24821;51.988;6.020;2022-07-10T01:42:55;16.70;92.90
39067;DHT22;24821;51.988;6.020;2022-07-10T01:45:21;16.60;93.00
39067;DHT22;24821;51.988;6.020;2022-07-10T01:47:47;16.60;93.10
39067;DHT22;24821;51.988;6.020;2022-07-10T01:50:12;16.60;93.20
39067;DHT22;24821;51.988;6.020;2022-07-10T01:52:38;16.50;93.20
39067;DHT22;24821;51.988;6.020;2022-07-10T01:55:05;16.50;93.30
39067;DHT22;24821;51.988;6.020;2022-07-10T01:57:31;16.50;93.30
39067;DHT22;24821;51.988;6.020;2022-07-10T01:59:56;16.40;93.30
39067;DHT22;24821;51.988;6.020;2022-07-10T02:02:22;16.50;93.40
39067;DHT22;24821;51.988;6.020;2022-07-10T02:04:47;16.50;93.40
39067;DHT22;24821;51.988;6.020;2022-07-10T02:07:15;16.50;93.40
39067;DHT22;24821;51.988;6.020;2022-07-10T02:09:42;16.50;93.40
39067;DHT22;24821;51.988;6.020;2022-07-10T02:12:09;16.60;93.40
39067;DHT22;24821;51.988;6.020;2022-07-10T02:14:35;16.60;93.50
39067;DHT22;24821;51.988;6.020;2022-07-10T02:17:01;16.60;93.50
39067;DHT22;24821;51.988;6.020;2022-07-10T02:19:27;16.60;93.40
39067;DHT22;24821;51.988;6.020;2022-07-10T02:21:53;16.70;93.40
39067;DHT22;24821;51.988;6.020;2022-07-10T02:24:18;16.70;93.40
39067;DHT22;24821;51.988;6.020;2022-07-10T02:26:44;16.60;93.40
39067;DHT22;24821;51.988;6.020;2022-07-10T02:29:11;16.70;93.30
39067;DHT22;24821;51.988;6.020;2022-07-10T02:31:36;16.60;93.20
39067;DHT22;24821;51.988;6.020;2022-07-10T02:34:06;16.60;93.30
39067;DHT22;24821;51.988;6.020;2022-07-10T02:36:32;16.60;93.30
39067;DHT22;24821;51.988;6.020;2022-07-10T02:38:58;16.60;93.30
39067;DHT22;24821;51.988;6.020;2022-07-10T02:41:24;16.60;93.40
39067;DHT22;24821;51.988;6.020;2022-07-10T02:43:49;16.40;93.30
39067;DHT22;24821;51.988;6.020;2022-07-10T02:46:15;16.40;93.40
39067;DHT22;24821;51.988;6.020;2022-07-10T02:48:40;16.40;93.30
39067;DHT22;24821;51.988;6.020;2022-07-10T02:51:06;16.40;93.30
39067;DHT22;24821;51.988;6.020;2022-07-10T02:53:31;16.40;93.30
39067;DHT22;24821;51.988;6.020;2022-07-10T02:55:57;16.40;93.30
39067;DHT22;24821;51.988;6.020;2022-07-10T02:58:22;16.40;93.30
39067;DHT22;24821;51.988;6.020;2022-07-10T03:00:48;16.30;93.30
39067;DHT22;24821;51.988;6.020;2022-07-10T03:03:14;16.30;93.40
39067;DHT22;24821;51.988;6.020;2022-07-10T03:05:42;16.30;93.40
39067;DHT22;24821;51.988;6.020;2022-07-10T03:08:08;16.40;93.50
39067;DHT22;24821;51.988;6.020;2022-07-10T03:10:34;16.30;93.50
39067;DHT22;24821;51.988;6.020;2022-07-10T03:13:00;16.30;93.50
39067;DHT22;24821;51.988;6.020;2022-07-10T03:15:25;16.40;93.40
39067;DHT22;24821;51.988;6.020;2022-07-10T03:17:51;16.40;93.50
39067;DHT22;24821;51.988;6.020;2022-07-10T03:20:16;16.40;93.50
39067;DHT22;24821;51.988;6.020;2022-07-10T03:22:42;16.40;93.40
39067;DHT22;24821;51.988;6.020;2022-07-10T03:25:08;16.40;93.40
39067;DHT22;24821;51.988;6.020;2022-07-10T03:27:34;16.40;93.40
39067;DHT22;24821;51.988;6.020;2022-07-10T03:29:59;16.40;93.40
39067;DHT22;24821;51.988;6.020;2022-07-10T03:32:25;16.40;93.50
39067;DHT22;24821;51.988;6.020;2022-07-10T03:34:50;16.40;93.60
39067;DHT22;24821;51.988;6.020;2022-07-10T03:37:16;16.50;93.60
39067;DHT22;24821;51.988;6.020;2022-07-10T03:39:41;16.50;93.50
39067;DHT22;24821;51.988;6.020;2022-07-10T03:42:07;16.50;93.60
39067;DHT22;24821;51.988;6.020;2022-07-10T03:44:32;16.50;93.50
39067;DHT22;24821;51.988;6.020;2022-07-10T03:46:59;16.50;93.60
39067;DHT22;24821;51.988;6.020;2022-07-10T03:49:25;16.50;93.60
39067;DHT22;24821;51.988;6.020;2022-07-10T03:51:50;16.50;93.60
39067;DHT22;24821;51.988;6.020;2022-07-10T03:54:16;16.50;93.90
39067;DHT22;24821;51.988;6.020;2022-07-10T03:56:42;16.60;93.70
39067;DHT22;24821;51.988;6.020;2022-07-10T03:59:26;16.50;93.60
39067;DHT22;24821;51.988;6.020;2022-07-10T04:01:51;16.50;93.60
39067;DHT22;24821;51.988;6.020;2022-07-10T04:04:17;16.50;93.70
39067;DHT22;24821;51.988;6.020;2022-07-10T04:06:42;16.50;93.80
39067;DHT22;24821;51.988;6.020;2022-07-10T04:09:08;16.50;93.80
39067;DHT22;24821;51.988;6.020;2022-07-10T04:11:34;16.50;93.90
39067;DHT22;24821;51.988;6.020;2022-07-10T04:13:59;16.50;93.90
39067;DHT22;24821;51.988;6.020;2022-07-10T04:16:25;16.50;93.90
39067;DHT22;24821;51.988;6.020;2022-07-10T04:18:50;16.40;93.90
39067;DHT22;24821;51.988;6.020;2022-07-10T04:21:16;16.40;94.10
39067;DHT22;24821;51.988;6.020;2022-07-10T04:23:41;16.40;94.10
39067;DHT22;24821;51.988;6.020;2022-07-10T04:26:07;16.40;94.30
39067;DHT22;24821;51.988;6.020;2022-07-10T04:28:33;16.50;94.30
39067;DHT22;24821;51.988;6.020;2022-07-10T04:30:58;16.50;94.40
39067;DHT22;24821;51.988;6.020;2022-07-10T04:33:25;16.50;94.40
39067;DHT22;24821;51.988;6.020;2022-07-10T04:35:51;16.60;94.40
39067;DHT22;24821;51.988;6.020;2022-07-10T04:38:16;16.60;94.40
39067;DHT22;24821;51.988;6.020;2022-07-10T04:40:42;16.60;94.50
39067;DHT22;24821;51.988;6.020;2022-07-10T04:43:07;16.60;94.40
39067;DHT22;24821;51.988;6.020;2022-07-10T04:45:35;16.60;94.40
39067;DHT22;24821;51.988;6.020;2022-07-10T04:48:05;16.70;94.40
39067;DHT22;24821;51.988;6.020;2022-07-10T04:50:31;16.70;94.30
39067;DHT22;24821;51.988;6.020;2022-07-10T04:52:57;16.80;94.40
39067;DHT22;24821;51.988;6.020;2022-07-10T04:55:23;16.80;94.30
39067;DHT22;24821;51.988;6.020;2022-07-10T04:57:48;16.80;94.30
39067;DHT22;24821;51.988;6.020;2022-07-10T05:00:15;16.80;94.30
39067;DHT22;24821;51.988;6.020;2022-07-10T05:02:42;16.80;94.20
39067;DHT22;24821;51.988;6.020;2022-07-10T05:05:08;16.90;94.20
39067;DHT22;24821;51.988;6.020;2022-07-10T05:07:33;16.80;94.20
39067;DHT22;24821;51.988;6.020;2022-07-10T05:09:59;16.80;94.20
39067;DHT22;24821;51.988;6.020;2022-07-10T05:12:25;16.80;94.30
39067;DHT22;24821;51.988;6.020;2022-07-10T05:14:51;16.90;94.30
39067;DHT22;24821;51.988;6.020;2022-07-10T05:17:16;16.90;94.20
39067;DHT22;24821;51.988;6.020;2022-07-10T05:19:42;16.90;94.20
39067;DHT22;24821;51.988;6.020;2022-07-10T05:22:07;16.90;94.20
39067;DHT22;24821;51.988;6.020;2022-07-10T05:24:34;16.90;94.30
39067;DHT22;24821;51.988;6.020;2022-07-10T05:27:00;16.90;94.30
39067;DHT22;24821;51.988;6.020;2022-07-10T05:29:25;16.90;94.30
39067;DHT22;24821;51.988;6.020;2022-07-10T05:31:51;17.00;94.30
39067;DHT22;24821;51.988;6.020;2022-07-10T05:34:17;17.10;94.10
39067;DHT22;24821;51.988;6.020;2022-07-10T05:36:42;17.20;94.10
39067;DHT22;24821;51.988;6.020;2022-07-10T05:39:08;17.20;93.90
39067;DHT22;24821;51.988;6.020;2022-07-10T05:41:33;17.40;93.80
39067;DHT22;24821;51.988;6.020;2022-07-10T05:43:59;17.40;93.60
39067;DHT22;24821;51.988;6.020;2022-07-10T05:46:25;17.40;93.50
39067;DHT22;24821;51.988;6.020;2022-07-10T05:48:51;17.40;93.50
39067;DHT22;24821;51.988;6.020;2022-07-10T05:51:17;17.50;93.60
39067;DHT22;24821;51.988;6.020;2022-07-10T05:53:42;17.40;93.70
39067;DHT22;24821;51.988;6.020;2022-07-10T05:56:08;17.50;93.80
39067;DHT22;24821;51.988;6.020;2022-07-10T05:58:33;17.50;93.80
39067;DHT22;24821;51.988;6.020;2022-07-10T06:00:59;17.50;93.80
39067;DHT22;24821;51.988;6.020;2022-07-10T06:03:25;17.50;93.70
39067;DHT22;24821;51.988;6.020;2022-07-10T06:05:51;17.50;93.80
39067;DHT22;24821;51.988;6.020;2022-07-10T06:08:17;17.50;93.90
39067;DHT22;24821;51.988;6.020;2022-07-10T06:10:43;17.50;93.90
39067;DHT22;24821;51.988;6.020;2022-07-10T06:13:12;17.40;94.00
39067;DHT22;24821;51.988;6.020;2022-07-10T06:15:39;17.40;94.00
39067;DHT22;24821;51.988;6.020;2022-07-10T06:18:04;17.50;94.10
39067;DHT22;24821;51.988;6.020;2022-07-10T06:20:30;17.40;94.10
39067;DHT22;24821;51.988;6.020;2022-07-10T06:22:56;17.40;94.30
39067;DHT22;24821;51.988;6.020;2022-07-10T06:25:22;17.40;94.30
39067;DHT22;24821;51.988;6.020;2022-07-10T06:27:47;17.40;94.50
39067;DHT22;24821;51.988;6.020;2022-07-10T06:30:13;17.40;94.60
39067;DHT22;24821;51.988;6.020;2022-07-10T06:32:39;17.50;94.60
39067;DHT22;24821;51.988;6.020;2022-07-10T06:35:05;17.50;94.70
39067;DHT22;24821;51.988;6.020;2022-07-10T06:37:32;17.50;94.70
39067;DHT22;24821;51.988;6.020;2022-07-10T06:39:58;17.50;94.70
39067;DHT22;24821;51.988;6.020;2022-07-10T06:42:23;17.50;94.80
39067;DHT22;24821;51.988;6.020;2022-07-10T06:44:49;17.50;94.90
39067;DHT22;24821;51.988;6.020;2022-07-10T06:47:17;17.50;95.00
39067;DHT22;24821;51.988;6.020;2022-07-10T06:50:06;17.50;95.20
39067;DHT22;24821;51.988;6.020;2022-07-10T06:52:33;17.40;95.70
39067;DHT22;24821;51.988;6.020;2022-07-10T06:54:59;17.30;96.20
39067;DHT22;24821;51.988;6.020;2022-07-10T06:57:25;17.20;96.60
39067;DHT22;24821;51.988;6.020;2022-07-10T06:59:51;17.20;97.00
39067;DHT22;24821;51.988;6.020;2022-07-10T07:02:18;17.20;97.50
39067;DHT22;24821;51.988;6.020;2022-07-10T07:04:43;17.10;97.70
39067;DHT22;24821;51.988;6.020;2022-07-10T07:07:14;17.10;97.90
39067;DHT22;24821;51.988;6.020;2022-07-10T07:09:40;17.20;98.20
39067;DHT22;24821;51.988;6.020;2022-07-10T07:12:07;17.20;98.30
39067;DHT22;24821;51.988;6.020;2022-07-10T07:14:33;17.20;98.50
39067;DHT22;24821;51.988;6.020;2022-07-10T07:16:58;17.30;98.60
39067;DHT22;24821;51.988;6.020;2022-07-10T07:19:29;17.30;98.80
39067;DHT22;24821;51.988;6.020;2022-07-10T07:22:17;17.40;98.80
39067;DHT22;24821;51.988;6.020;2022-07-10T07:25:02;17.40;98.90
39067;DHT22;24821;51.988;6.020;2022-07-10T07:27:28;17.40;99.00
39067;DHT22;24821;51.988;6.020;2022-07-10T07:29:54;17.50;99.10
39067;DHT22;24821;51.988;6.020;2022-07-10T07:32:19;17.60;99.20
39067;DHT22;24821;51.988;6.020;2022-07-10T07:34:45;17.60;99.30
39067;DHT22;24821;51.988;6.020;2022-07-10T07:37:10;17.70;99.30
39067;DHT22;24821;51.988;6.020;2022-07-10T07:39:36;17.70;99.30
39067;DHT22;24821;51.988;6.020;2022-07-10T07:42:02;17.60;99.30
39067;DHT22;24821;51.988;6.020;2022-07-10T07:44:28;17.60;99.40
39067;DHT22;24821;51.988;6.020;2022-07-10T07:46:54;17.60;99.90
39067;DHT22;24821;51.988;6.020;2022-07-10T07:49:20;17.60;99.60
39067;DHT22;24821;51.988;6.020;2022-07-10T07:51:45;17.60;99.80
39067;DHT22;24821;51.988;6.020;2022-07-10T07:54:11;17.60;99.90
39067;DHT22;24821;51.988;6.020;2022-07-10T07:56:36;17.70;99.90
39067;DHT22;24821;51.988;6.020;2022-07-10T07:59:02;17.80;99.90
39067;DHT22;24821;51.988;6.020;2022-07-10T08:01:27;17.90;99.90
39067;DHT22;24821;51.988;6.020;2022-07-10T08:03:53;18.00;99.80
39067;DHT22;24821;51.988;6.020;2022-07-10T08:06:21;18.10;99.80
39067;DHT22;24821;51.988;6.020;2022-07-10T08:08:46;18.10;99.60
39067;DHT22;24821;51.988;6.020;2022-07-10T08:11:12;18.10;99.60
39067;DHT22;24821;51.988;6.020;2022-07-10T08:13:37;18.10;99.60
39067;DHT22;24821;51.988;6.020;2022-07-10T08:16:03;18.10;99.50
39067;DHT22;24821;51.988;6.020;2022-07-10T08:18:29;18.10;99.60
39067;DHT22;24821;51.988;6.020;2022-07-10T08:20:55;18.10;99.70
39067;DHT22;24821;51.988;6.020;2022-07-10T08:23:20;18.20;99.70
39067;DHT22;24821;51.988;6.020;2022-07-10T08:25:46;18.10;99.60
39067;DHT22;24821;51.988;6.020;2022-07-10T08:28:11;18.10;99.60
39067;DHT22;24821;51.988;6.020;2022-07-10T08:30:37;18.10;99.60
39067;DHT22;24821;51.988;6.020;2022-07-10T08:33:03;18.10;99.70
39067;DHT22;24821;51.988;6.020;2022-07-10T08:35:29;18.10;99.80
39067;DHT22;24821;51.988;6.020;2022-07-10T08:37:55;18.10;99.80
39067;DHT22;24821;51.988;6.020;2022-07-10T08:40:22;18.10;99.80
39067;DHT22;24821;51.988;6.020;2022-07-10T08:42:47;18.10;99.60
39067;DHT22;24821;51.988;6.020;2022-07-10T08:45:14;18.10;99.40
39067;DHT22;24821;51.988;6.020;2022-07-10T08:47:40;18.20;99.20
39067;DHT22;24821;51.988;6.020;2022-07-10T08:50:17;18.20;99.40
39067;DHT22;24821;51.988;6.020;2022-07-10T08:52:47;18.30;99.60
39067;DHT22;24821;51.988;6.020;2022-07-10T08:55:20;18.50;99.70
39067;DHT22;24821;51.988;6.020;2022-07-10T08:57:47;18.60;99.60
39067;DHT22;24821;51.988;6.020;2022-07-10T09:00:14;18.80;99.70
39067;DHT22;24821;51.988;6.020;2022-07-10T09:02:39;19.00;98.90
39067;DHT22;24821;51.988;6.020;2022-07-10T09:05:05;19.20;98.80
39067;DHT22;24821;51.988;6.020;2022-07-10T09:07:37;19.30;98.30
39067;DHT22;24821;51.988;6.020;2022-07-10T09:10:10;19.50;98.30
39067;DHT22;24821;51.988;6.020;2022-07-10T09:15:25;19.80;97.60
39067;DHT22;24821;51.988;6.020;2022-07-10T09:17:55;19.90;96.90
39067;DHT22;24821;51.988;6.020;2022-07-10T09:23:00;20.20;96.30
39067;DHT22;24821;51.988;6.020;2022-07-10T09:25:35;20.30;95.90
39067;DHT22;24821;51.988;6.020;2022-07-10T09:28:01;20.40;96.10
39067;DHT22;24821;51.988;6.020;2022-07-10T09:30:38;20.50;95.30
39067;DHT22;24821;51.988;6.020;2022-07-10T09:33:23;20.60;95.10
39067;DHT22;24821;51.988;6.020;2022-07-10T09:36:03;20.60;95.10
39067;DHT22;24821;51.988;6.020;2022-07-10T09:41:21;20.60;94.40
39067;DHT22;24821;51.988;6.020;2022-07-10T09:43:53;20.70;94.70
39067;DHT22;24821;51.988;6.020;2022-07-10T09:46:22;20.80;95.10
39067;DHT22;24821;51.988;6.020;2022-07-10T09:48:48;20.90;94.40
39067;DHT22;24821;51.988;6.020;2022-07-10T09:51:25;21.10;93.50
39067;DHT22;24821;51.988;6.020;2022-07-10T09:53:51;21.30;93.20
39067;DHT22;24821;51.988;6.020;2022-07-10T09:56:17;21.30;92.90
39067;DHT22;24821;51.988;6.020;2022-07-10T09:58:44;21.40;92.70
39067;DHT22;24821;51.988;6.020;2022-07-10T10:01:10;21.40;93.00
39067;DHT22;24821;51.988;6.020;2022-07-10T10:03:37;21.60;93.20
39067;DHT22;24821;51.988;6.020;2022-07-10T10:06:04;21.70;92.70
39067;DHT22;24821;51.988;6.020;2022-07-10T10:11:24;22.10;91.90
39067;DHT22;24821;51.988;6.020;2022-07-10T10:13:51;22.30;92.10
39067;DHT22;24821;51.988;6.020;2022-07-10T10:16:19;22.60;91.50
39067;DHT22;24821;51.988;6.020;2022-07-10T10:18:46;22.70;91.00
39067;DHT22;24821;51.988;6.020;2022-07-10T10:21:31;22.60;90.50
39067;DHT22;24821;51.988;6.020;2022-07-10T10:23:58;22.30;90.40
39067;DHT22;24821;51.988;6.020;2022-07-10T10:26:25;21.90;90.30
39067;DHT22;24821;51.988;6.020;2022-07-10T10:28:53;21.60;90.70
39067;DHT22;24821;51.988;6.020;2022-07-10T10:31:20;21.50;91.50
39067;DHT22;24821;51.988;6.020;2022-07-10T10:33:46;21.40;91.70
39067;DHT22;24821;51.988;6.020;2022-07-10T10:36:15;21.50;91.00
39067;DHT22;24821;51.988;6.020;2022-07-10T10:39:02;21.60;90.90
39067;DHT22;24821;51.988;6.020;2022-07-10T10:41:40;21.60;90.90
39067;DHT22;24821;51.988;6.020;2022-07-10T10:46:33;22.00;90.60
39067;DHT22;24821;51.988;6.020;2022-07-10T10:49:06;22.00;90.30
39067;DHT22;24821;51.988;6.020;2022-07-10T10:51:57;22.00;90.10
39067;DHT22;24821;51.988;6.020;2022-07-10T10:54:23;22.00;90.20
39067;DHT22;24821;51.988;6.020;2022-07-10T10:57:11;21.90;90.20
39067;DHT22;24821;51.988;6.020;2022-07-10T10:59:50;21.80;90.40
39067;DHT22;24821;51.988;6.020;2022-07-10T11:02:30;21.70;89.80
39067;DHT22;24821;51.988;6.020;2022-07-10T11:07:55;21.40;90.50
39067;DHT22;24821;51.988;6.020;2022-07-10T11:10:44;21.30;90.50
39067;DHT22;24821;51.988;6.020;2022-07-10T11:13:14;21.30;91.20
39067;DHT22;24821;51.988;6.020;2022-07-10T11:15:42;21.30;91.30
39067;DHT22;24821;51.988;6.020;2022-07-10T11:18:14;21.50;90.80
39067;DHT22;24821;51.988;6.020;2022-07-10T11:20:47;21.80;91.20
39067;DHT22;24821;51.988;6.020;2022-07-10T11:23:35;22.20;90.70
39067;DHT22;24821;51.988;6.020;2022-07-10T11:26:13;22.40;89.40
39067;DHT22;24821;51.988;6.020;2022-07-10T11:28:58;22.50;88.40
39067;DHT22;24821;51.988;6.020;2022-07-10T11:31:26;22.80;88.40
39067;DHT22;24821;51.988;6.020;2022-07-10T11:33:54;22.90;88.60
39067;DHT22;24821;51.988;6.020;2022-07-10T11:36:24;23.00;87.50
39067;DHT22;24821;51.988;6.020;2022-07-10T11:39:06;23.10;86.80
39067;DHT22;24821;51.988;6.020;2022-07-10T11:41:31;23.20;87.10
39067;DHT22;24821;51.988;6.020;2022-07-10T11:44:02;23.20;87.10
39067;DHT22;24821;51.988;6.020;2022-07-10T11:46:30;23.00;86.20
39067;DHT22;24821;51.988;6.020;2022-07-10T11:48:57;22.90;86.00
39067;DHT22;24821;51.988;6.020;2022-07-10T11:51:27;22.80;87.10
39067;DHT22;24821;51.988;6.020;2022-07-10T11:54:13;23.00;88.20
39067;DHT22;24821;51.988;6.020;2022-07-10T11:56:54;23.20;86.40
39067;DHT22;24821;51.988;6.020;2022-07-10T11:59:27;23.20;85.80
39067;DHT22;24821;51.988;6.020;2022-07-10T12:01:54;23.20;86.00
39067;DHT22;24821;51.988;6.020;2022-07-10T12:04:22;23.00;86.70
39067;DHT22;24821;51.988;6.020;2022-07-10T12:06:49;22.90;87.40
39067;DHT22;24821;51.988;6.020;2022-07-10T12:09:34;22.60;86.90
39067;DHT22;24821;51.988;6.020;2022-07-10T12:12:05;22.30;87.40
39067;DHT22;24821;51.988;6.020;2022-07-10T12:14:33;22.20;87.90
39067;DHT22;24821;51.988;6.020;2022-07-10T12:16:59;22.20;89.10
39067;DHT22;24821;51.988;6.020;2022-07-10T12:19:30;22.40;88.80
39067;DHT22;24821;51.988;6.020;2022-07-10T12:21:58;22.60;87.70
39067;DHT22;24821;51.988;6.020;2022-07-10T12:24:24;22.60;88.20
39067;DHT22;24821;51.988;6.020;2022-07-10T12:26:51;22.60;87.20
39067;DHT22;24821;51.988;6.020;2022-07-10T12:29:29;22.40;86.30
39067;DHT22;24821;51.988;6.020;2022-07-10T12:31:56;22.40;86.90
39067;DHT22;24821;51.988;6.020;2022-07-10T12:37:10;22.30;87.10
39067;DHT22;24821;51.988;6.020;2022-07-10T12:39:37;22.10;87.50
39067;DHT22;24821;51.988;6.020;2022-07-10T12:42:06;21.80;87.80
39067;DHT22;24821;51.988;6.020;2022-07-10T12:44:43;21.70;88.20
39067;DHT22;24821;51.988;6.020;2022-07-10T12:47:14;21.70;89.20
39067;DHT22;24821;51.988;6.020;2022-07-10T12:52:23;22.20;88.20
39067;DHT22;24821;51.988;6.020;2022-07-10T12:54:48;22.30;88.30
39067;DHT22;24821;51.988;6.020;2022-07-10T12:57:14;22.30;87.90
39067;DHT22;24821;51.988;6.020;2022-07-10T12:59:40;22.40;87.00
39067;DHT22;24821;51.988;6.020;2022-07-10T13:02:17;22.40;87.40
39067;DHT22;24821;51.988;6.020;2022-07-10T13:04:54;22.40;86.80
39067;DHT22;24821;51.988;6.020;2022-07-10T13:07:20;22.50;86.60
39067;DHT22;24821;51.988;6.020;2022-07-10T13:09:47;22.50;86.80
39067;DHT22;24821;51.988;6.020;2022-07-10T13:12:15;22.50;86.90
39067;DHT22;24821;51.988;6.020;2022-07-10T13:14:41;22.60;86.70
39067;DHT22;24821;51.988;6.020;2022-07-10T13:17:06;22.70;85.90
39067;DHT22;24821;51.988;6.020;2022-07-10T13:19:32;22.70;85.60
39067;DHT22;24821;51.988;6.020;2022-07-10T13:21:57;22.70;85.00
39067;DHT22;24821;51.988;6.020;2022-07-10T13:24:23;22.80;85.00
39067;DHT22;24821;51.988;6.020;2022-07-10T13:26:48;22.90;84.40
39067;DHT22;24821;51.988;6.020;2022-07-10T13:29:14;23.00;85.10
39067;DHT22;24821;51.988;6.020;2022-07-10T13:31:40;23.00;84.90
39067;DHT22;24821;51.988;6.020;2022-07-10T13:34:06;23.10;85.40
39067;DHT22;24821;51.988;6.020;2022-07-10T13:36:31;23.30;84.10
39067;DHT22;24821;51.988;6.020;2022-07-10T13:38:57;23.30;83.00
39067;DHT22;24821;51.988;6.020;2022-07-10T13:41:22;23.30;83.70
39067;DHT22;24821;51.988;6.020;2022-07-10T13:43:48;23.40;84.30
39067;DHT22;24821;51.988;6.020;2022-07-10T13:46:14;23.60;82.70
39067;DHT22;24821;51.988;6.020;2022-07-10T13:48:40;23.60;82.50
39067;DHT22;24821;51.988;6.020;2022-07-10T13:51:06;23.60;81.70
39067;DHT22;24821;51.988;6.020;2022-07-10T13:53:32;23.60;82.30
39067;DHT22;24821;51.988;6.020;2022-07-10T13:55:57;23.70;82.00
39067;DHT22;24821;51.988;6.020;2022-07-10T13:58:24;23.80;81.50
39067;DHT22;24821;51.988;6.020;2022-07-10T14:00:50;23.80;80.50
39067;DHT22;24821;51.988;6.020;2022-07-10T14:03:15;23.80;80.60
39067;DHT22;24821;51.988;6.020;2022-07-10T14:05:41;23.70;81.80
39067;DHT22;24821;51.988;6.020;2022-07-10T14:08:07;23.80;80.90
39067;DHT22;24821;51.988;6.020;2022-07-10T14:10:32;23.80;80.40
39067;DHT22;24821;51.988;6.020;2022-07-10T14:12:58;23.80;79.60
39067;DHT22;24821;51.988;6.020;2022-07-10T14:15:25;23.80;79.40
39067;DHT22;24821;51.988;6.020;2022-07-10T14:17:51;23.90;78.80
39067;DHT22;24821;51.988;6.020;2022-07-10T14:20:17;23.80;79.00
39067;DHT22;24821;51.988;6.020;2022-07-10T14:22:42;23.70;78.50
39067;DHT22;24821;51.988;6.020;2022-07-10T14:25:11;23.70;79.00
39067;DHT22;24821;51.988;6.020;2022-07-10T14:27:37;23.70;79.60
39067;DHT22;24821;51.988;6.020;2022-07-10T14:30:04;23.60;77.70
39067;DHT22;24821;51.988;6.020;2022-07-10T14:32:29;23.60;78.10
39067;DHT22;24821;51.988;6.020;2022-07-10T14:34:55;23.60;78.30
39067;DHT22;24821;51.988;6.020;2022-07-10T14:37:20;23.60;78.30
39067;DHT22;24821;51.988;6.020;2022-07-10T14:39:47;23.60;78.50
39067;DHT22;24821;51.988;6.020;2022-07-10T14:42:13;23.60;78.20
39067;DHT22;24821;51.988;6.020;2022-07-10T14:44:39;23.70;78.70
39067;DHT22;24821;51.988;6.020;2022-07-10T14:47:04;23.70;78.70
39067;DHT22;24821;51.988;6.020;2022-07-10T14:49:30;23.70;78.90
39067;DHT22;24821;51.988;6.020;2022-07-10T14:51:56;23.70;78.90
39067;DHT22;24821;51.988;6.020;2022-07-10T14:54:22;23.70;78.90
39067;DHT22;24821;51.988;6.020;2022-07-10T14:56:47;23.70;78.60
39067;DHT22;24821;51.988;6.020;2022-07-10T14:59:13;23.60;78.50
39067;DHT22;24821;51.988;6.020;2022-07-10T15:01:38;23.60;78.60
39067;DHT22;24821;51.988;6.020;2022-07-10T15:04:04;23.60;78.10
39067;DHT22;24821;51.988;6.020;2022-07-10T15:06:30;23.60;79.00
39067;DHT22;24821;51.988;6.020;2022-07-10T15:08:55;23.60;79.20
39067;DHT22;24821;51.988;6.020;2022-07-10T15:11:21;23.70;78.40
39067;DHT22;24821;51.988;6.020;2022-07-10T15:13:52;23.70;78.00
39067;DHT22;24821;51.988;6.020;2022-07-10T15:16:27;23.60;78.20
39067;DHT22;24821;51.988;6.020;2022-07-10T15:18:53;23.60;78.60
39067;DHT22;24821;51.988;6.020;2022-07-10T15:21:19;23.60;79.00
39067;DHT22;24821;51.988;6.020;2022-07-10T15:23:44;23.70;79.50
39067;DHT22;24821;51.988;6.020;2022-07-10T15:26:10;23.60;79.40
39067;DHT22;24821;51.988;6.020;2022-07-10T15:28:37;23.60;79.50
39067;DHT22;24821;51.988;6.020;2022-07-10T15:31:03;23.70;79.10
39067;DHT22;24821;51.988;6.020;2022-07-10T15:33:32;23.70;79.20
39067;DHT22;24821;51.988;6.020;2022-07-10T15:35:58;23.90;79.70
39067;DHT22;24821;51.988;6.020;2022-07-10T15:38:23;24.00;78.50
39067;DHT22;24821;51.988;6.020;2022-07-10T15:40:49;24.10;78.50
39067;DHT22;24821;51.988;6.020;2022-07-10T15:43:15;24.10;78.00
39067;DHT22;24821;51.988;6.020;2022-07-10T15:45:43;24.10;78.10
39067;DHT22;24821;51.988;6.020;2022-07-10T15:48:09;24.10;77.30
39067;DHT22;24821;51.988;6.020;2022-07-10T15:50:40;24.10;77.40
39067;DHT22;24821;51.988;6.020;2022-07-10T15:53:06;23.90;78.10